Greenville, Florida
Current Conditions -  °F | °C
As of 4:15 PM on Monday 24 Nov 2014 (Local Time) from K40J Reporting Station
Moderate Rain Moderate Rain  
Wind Chill: 69°   Ceiling: 1600
Heat Index: 69°   Visibility: 2.5mi
Dew Point: 68°   Wind: 3mph
Humidity: 98%   Direction: 250°WSW
Pressure: 29.91"   Gusts: NA
Location:  30.47°N, 83.63°W
Report Text: K40J 242115Z AUTO 25003KT 2 1/2SM RA BKN016 OVC026 21/20 A2991 RMK AO2 P0002 T02050202
Loading
Personal Weather Stations






























Interactive Weather Map New forecast layout! Learn more

10-Day Weather Forecast

Advertisements
Track Severe Weather on mobile